sensor_id;sensor_type;location;lat;lon;timestamp;pressure;altitude;pressure_sealevel;temperature;humidity
4814;BME280;15375;48.540;9.268;2023-03-22T00:01:10;97189.69;;;10.32;98.31
4814;BME280;15375;48.540;9.268;2023-03-22T00:03:36;97189.31;;;10.30;97.49
4814;BME280;15375;48.540;9.268;2023-03-22T00:06:02;97173.09;;;10.23;96.53
4814;BME280;15375;48.540;9.268;2023-03-22T00:08:27;97180.44;;;10.26;96.42
4814;BME280;15375;48.540;9.268;2023-03-22T00:10:53;97179.75;;;10.22;95.47
4814;BME280;15375;48.540;9.268;2023-03-22T00:13:18;97169.75;;;10.15;95.98
4814;BME280;15375;48.540;9.268;2023-03-22T00:15:43;97196.03;;;10.25;96.37
4814;BME280;15375;48.540;9.268;2023-03-22T00:18:12;97195.34;;;10.21;97.85
4814;BME280;15375;48.540;9.268;2023-03-22T00:20:46;97180.72;;;10.12;97.82
4814;BME280;15375;48.540;9.268;2023-03-22T00:23:11;97187.75;;;10.09;96.43
4814;BME280;15375;48.540;9.268;2023-03-22T00:25:36;97188.97;;;10.05;95.58
4814;BME280;15375;48.540;9.268;2023-03-22T00:28:02;97178.69;;;9.93;96.03
4814;BME280;15375;48.540;9.268;2023-03-22T00:30:27;97180.94;;;9.98;97.20
4814;BME280;15375;48.540;9.268;2023-03-22T00:32:53;97174.78;;;9.94;96.71
4814;BME280;15375;48.540;9.268;2023-03-22T00:35:18;97171.00;;;9.88;96.50
4814;BME280;15375;48.540;9.268;2023-03-22T00:37:43;97191.06;;;9.97;96.30
4814;BME280;15375;48.540;9.268;2023-03-22T00:40:12;97184.88;;;9.97;95.41
4814;BME280;15375;48.540;9.268;2023-03-22T00:42:39;97178.63;;;9.96;96.09
4814;BME280;15375;48.540;9.268;2023-03-22T00:45:07;97178.69;;;9.93;94.78
4814;BME280;15375;48.540;9.268;2023-03-22T00:47:34;97167.63;;;9.80;96.15
4814;BME280;15375;48.540;9.268;2023-03-22T00:50:00;97169.66;;;9.76;98.32
4814;BME280;15375;48.540;9.268;2023-03-22T00:52:26;97170.66;;;9.62;98.70
4814;BME280;15375;48.540;9.268;2023-03-22T00:54:53;97140.31;;;9.41;99.91
4814;BME280;15375;48.540;9.268;2023-03-22T00:57:18;97136.09;;;9.36;100.00
4814;BME280;15375;48.540;9.268;2023-03-22T00:59:43;97123.03;;;9.28;99.88
4814;BME280;15375;48.540;9.268;2023-03-22T01:02:10;97149.25;;;9.41;99.08
4814;BME280;15375;48.540;9.268;2023-03-22T01:04:38;97165.84;;;9.47;99.40
4814;BME280;15375;48.540;9.268;2023-03-22T01:07:04;97160.59;;;9.36;99.72
4814;BME280;15375;48.540;9.268;2023-03-22T01:09:32;97157.94;;;9.33;99.72
4814;BME280;15375;48.540;9.268;2023-03-22T01:11:58;97139.94;;;9.16;100.00
4814;BME280;15375;48.540;9.268;2023-03-22T01:14:25;97137.72;;;9.07;100.00
4814;BME280;15375;48.540;9.268;2023-03-22T01:16:51;97137.00;;;9.03;100.00
4814;BME280;15375;48.540;9.268;2023-03-22T01:19:22;97128.91;;;8.99;100.00
4814;BME280;15375;48.540;9.268;2023-03-22T01:21:48;97129.00;;;8.92;100.00
4814;BME280;15375;48.540;9.268;2023-03-22T01:24:13;97133.28;;;8.93;100.00
4814;BME280;15375;48.540;9.268;2023-03-22T01:26:38;97140.25;;;8.94;100.00
4814;BME280;15375;48.540;9.268;2023-03-22T01:29:04;97150.63;;;9.03;100.00
4814;BME280;15375;48.540;9.268;2023-03-22T01:31:30;97134.09;;;8.90;100.00
4814;BME280;15375;48.540;9.268;2023-03-22T01:33:55;97117.97;;;8.76;100.00
4814;BME280;15375;48.540;9.268;2023-03-22T01:36:20;97132.66;;;8.82;100.00
4814;BME280;15375;48.540;9.268;2023-03-22T01:38:46;97134.69;;;8.75;100.00
4814;BME280;15375;48.540;9.268;2023-03-22T01:41:11;97142.44;;;8.76;100.00
4814;BME280;15375;48.540;9.268;2023-03-22T01:43:37;97129.41;;;8.64;100.00
4814;BME280;15375;48.540;9.268;2023-03-22T01:46:02;97111.34;;;8.51;100.00
4814;BME280;15375;48.540;9.268;2023-03-22T01:48:43;97109.44;;;8.48;100.00
4814;BME280;15375;48.540;9.268;2023-03-22T01:51:21;97130.41;;;8.47;100.00
4814;BME280;15375;48.540;9.268;2023-03-22T01:53:59;97126.66;;;8.38;100.00
4814;BME280;15375;48.540;9.268;2023-03-22T01:56:29;97115.03;;;8.33;100.00
4814;BME280;15375;48.540;9.268;2023-03-22T01:58:56;97110.44;;;8.30;100.00
4814;BME280;15375;48.540;9.268;2023-03-22T02:01:22;97088.22;;;8.05;100.00
4814;BME280;15375;48.540;9.268;2023-03-22T02:06:13;97110.69;;;8.06;100.00
4814;BME280;15375;48.540;9.268;2023-03-22T02:08:38;97109.94;;;8.05;100.00
4814;BME280;15375;48.540;9.268;2023-03-22T02:11:05;97057.56;;;7.71;100.00
4814;BME280;15375;48.540;9.268;2023-03-22T02:16:21;97100.00;;;7.92;100.00
4814;BME280;15375;48.540;9.268;2023-03-22T02:19:27;97097.72;;;7.90;100.00
4814;BME280;15375;48.540;9.268;2023-03-22T02:31:16;97098.06;;;7.92;100.00
4814;BME280;15375;48.540;9.268;2023-03-22T02:44:45;97100.41;;;7.53;100.00
4814;BME280;15375;48.540;9.268;2023-03-22T02:49:51;97071.66;;;7.22;100.00
4814;BME280;15375;48.540;9.268;2023-03-22T02:57:54;97100.53;;;7.39;100.00
4814;BME280;15375;48.540;9.268;2023-03-22T03:00:24;97090.50;;;7.36;100.00
4814;BME280;15375;48.540;9.268;2023-03-22T03:02:56;97100.53;;;7.39;100.00
4814;BME280;15375;48.540;9.268;2023-03-22T03:05:25;97085.91;;;7.29;100.00
4814;BME280;15375;48.540;9.268;2023-03-22T03:07:56;97092.47;;;7.32;100.00
4814;BME280;15375;48.540;9.268;2023-03-22T03:10:24;97088.28;;;7.24;100.00
4814;BME280;15375;48.540;9.268;2023-03-22T03:12:50;97072.88;;;7.14;100.00
4814;BME280;15375;48.540;9.268;2023-03-22T03:15:18;97078.31;;;7.10;100.00
4814;BME280;15375;48.540;9.268;2023-03-22T03:20:55;97089.84;;;7.25;100.00
4814;BME280;15375;48.540;9.268;2023-03-22T03:34:04;97103.53;;;7.07;100.00
4814;BME280;15375;48.540;9.268;2023-03-22T03:36:34;97092.38;;;6.98;100.00
4814;BME280;15375;48.540;9.268;2023-03-22T03:39:04;97083.94;;;6.85;100.00
4814;BME280;15375;48.540;9.268;2023-03-22T03:41:32;97112.53;;;6.93;100.00
4814;BME280;15375;48.540;9.268;2023-03-22T03:43:59;97092.50;;;6.80;100.00
4814;BME280;15375;48.540;9.268;2023-03-22T03:46:24;97113.75;;;6.89;100.00
4814;BME280;15375;48.540;9.268;2023-03-22T03:48:51;97116.09;;;6.87;100.00
4814;BME280;15375;48.540;9.268;2023-03-22T03:51:17;97112.69;;;6.72;100.00
4814;BME280;15375;48.540;9.268;2023-03-22T03:53:42;97124.66;;;6.78;100.00
4814;BME280;15375;48.540;9.268;2023-03-22T03:56:08;97094.97;;;6.57;100.00
4814;BME280;15375;48.540;9.268;2023-03-22T03:58:34;97116.63;;;6.64;100.00
4814;BME280;15375;48.540;9.268;2023-03-22T04:00:59;97118.16;;;6.65;100.00
4814;BME280;15375;48.540;9.268;2023-03-22T04:03:25;97120.50;;;6.63;100.00
4814;BME280;15375;48.540;9.268;2023-03-22T04:05:50;97117.03;;;6.56;100.00
4814;BME280;15375;48.540;9.268;2023-03-22T04:08:15;97107.81;;;6.42;100.00
4814;BME280;15375;48.540;9.268;2023-03-22T04:10:41;97125.25;;;6.41;100.00
4814;BME280;15375;48.540;9.268;2023-03-22T04:13:06;97138.41;;;6.43;100.00
4814;BME280;15375;48.540;9.268;2023-03-22T04:15:32;97125.59;;;6.47;100.00
4814;BME280;15375;48.540;9.268;2023-03-22T04:17:58;97113.59;;;6.48;100.00
4814;BME280;15375;48.540;9.268;2023-03-22T04:20:24;97132.53;;;6.59;100.00
4814;BME280;15375;48.540;9.268;2023-03-22T04:22:50;97128.25;;;6.61;100.00
4814;BME280;15375;48.540;9.268;2023-03-22T04:25:17;97131.34;;;6.60;100.00
4814;BME280;15375;48.540;9.268;2023-03-22T04:27:44;97123.66;;;6.51;100.00
4814;BME280;15375;48.540;9.268;2023-03-22T04:30:12;97099.75;;;6.32;100.00
4814;BME280;15375;48.540;9.268;2023-03-22T04:32:43;97104.88;;;6.16;100.00
4814;BME280;15375;48.540;9.268;2023-03-22T04:35:08;97111.47;;;6.08;100.00
4814;BME280;15375;48.540;9.268;2023-03-22T04:37:34;97084.09;;;5.85;100.00
4814;BME280;15375;48.540;9.268;2023-03-22T04:40:00;97093.38;;;5.91;100.00
4814;BME280;15375;48.540;9.268;2023-03-22T04:42:30;97108.81;;;6.01;100.00
4814;BME280;15375;48.540;9.268;2023-03-22T04:44:55;97094.13;;;5.98;100.00
4814;BME280;15375;48.540;9.268;2023-03-22T04:47:20;97098.34;;;5.99;100.00
4814;BME280;15375;48.540;9.268;2023-03-22T04:49:46;97096.78;;;6.02;100.00
4814;BME280;15375;48.540;9.268;2023-03-22T04:52:11;97109.91;;;6.10;100.00
4814;BME280;15375;48.540;9.268;2023-03-22T04:54:36;97101.44;;;6.05;100.00
4814;BME280;15375;48.540;9.268;2023-03-22T04:57:02;97116.06;;;6.14;100.00
4814;BME280;15375;48.540;9.268;2023-03-22T04:59:28;97112.22;;;6.15;100.00
4814;BME280;15375;48.540;9.268;2023-03-22T05:01:54;97089.84;;;6.01;100.00
4814;BME280;15375;48.540;9.268;2023-03-22T05:04:20;97054.69;;;5.79;100.00
4814;BME280;15375;48.540;9.268;2023-03-22T05:06:45;97092.94;;;6.03;100.00
4814;BME280;15375;48.540;9.268;2023-03-22T05:09:11;97106.06;;;6.08;100.00
4814;BME280;15375;48.540;9.268;2023-03-22T05:11:37;97069.00;;;5.84;100.00
4814;BME280;15375;48.540;9.268;2023-03-22T05:14:03;97096.00;;;6.05;100.00
4814;BME280;15375;48.540;9.268;2023-03-22T05:16:28;97057.41;;;5.87;100.00
4814;BME280;15375;48.540;9.268;2023-03-22T05:18:54;97093.66;;;6.14;100.00
4814;BME280;15375;48.540;9.268;2023-03-22T05:21:21;97090.16;;;6.17;100.00
4814;BME280;15375;48.540;9.268;2023-03-22T05:23:53;97073.94;;;6.13;100.00
4814;BME280;15375;48.540;9.268;2023-03-22T05:26:19;97067.38;;;6.11;100.00
4814;BME280;15375;48.540;9.268;2023-03-22T05:28:44;97080.50;;;6.16;100.00
4814;BME280;15375;48.540;9.268;2023-03-22T05:31:10;97066.91;;;6.23;100.00
4814;BME280;15375;48.540;9.268;2023-03-22T05:33:39;97073.50;;;6.22;100.00
4814;BME280;15375;48.540;9.268;2023-03-22T05:36:06;97059.59;;;6.20;100.00
4814;BME280;15375;48.540;9.268;2023-03-22T05:38:31;97059.16;;;6.25;100.00
4814;BME280;15375;48.540;9.268;2023-03-22T05:40:58;97072.59;;;6.46;100.00
4814;BME280;15375;48.540;9.268;2023-03-22T05:43:23;97060.31;;;6.31;100.00
4814;BME280;15375;48.540;9.268;2023-03-22T05:45:49;97056.41;;;6.39;100.00
4814;BME280;15375;48.540;9.268;2023-03-22T05:48:15;97072.56;;;6.53;100.00
4814;BME280;15375;48.540;9.268;2023-03-22T05:50:40;97065.63;;;6.45;100.00
4814;BME280;15375;48.540;9.268;2023-03-22T05:53:06;97035.16;;;6.27;100.00
4814;BME280;15375;48.540;9.268;2023-03-22T05:55:31;97062.91;;;6.49;100.00
4814;BME280;15375;48.540;9.268;2023-03-22T05:57:58;97062.44;;;6.61;100.00
4814;BME280;15375;48.540;9.268;2023-03-22T06:00:24;97005.72;;;6.32;100.00
4814;BME280;15375;48.540;9.268;2023-03-22T06:02:50;97021.66;;;6.78;100.00
4814;BME280;15375;48.540;9.268;2023-03-22T06:05:21;97025.81;;;7.31;100.00
4814;BME280;15375;48.540;9.268;2023-03-22T06:07:46;97025.75;;;7.75;100.00
4814;BME280;15375;48.540;9.268;2023-03-22T06:10:13;97025.94;;;8.75;97.68
4814;BME280;15375;48.540;9.268;2023-03-22T06:12:39;97046.25;;;9.59;89.45
4814;BME280;15375;48.540;9.268;2023-03-22T06:15:05;97040.66;;;10.06;85.36
4814;BME280;15375;48.540;9.268;2023-03-22T06:17:30;97044.06;;;10.65;81.72
4814;BME280;15375;48.540;9.268;2023-03-22T06:19:56;97037.22;;;11.38;77.43
4814;BME280;15375;48.540;9.268;2023-03-22T06:22:21;97033.19;;;12.54;70.45
4814;BME280;15375;48.540;9.268;2023-03-22T06:24:47;97049.09;;;13.78;66.37
4814;BME280;15375;48.540;9.268;2023-03-22T06:27:13;97039.81;;;14.19;61.63
4814;BME280;15375;48.540;9.268;2023-03-22T06:29:39;97035.53;;;13.96;61.55
4814;BME280;15375;48.540;9.268;2023-03-22T06:32:04;97047.19;;;14.92;59.10
4814;BME280;15375;48.540;9.268;2023-03-22T06:34:30;97048.22;;;14.46;59.70
4814;BME280;15375;48.540;9.268;2023-03-22T06:36:56;97048.94;;;15.08;57.25
4814;BME280;15375;48.540;9.268;2023-03-22T06:39:22;97051.88;;;15.22;58.23
4814;BME280;15375;48.540;9.268;2023-03-22T06:41:47;97034.75;;;16.87;53.69
4814;BME280;15375;48.540;9.268;2023-03-22T06:44:13;97052.91;;;17.98;50.84
4814;BME280;15375;48.540;9.268;2023-03-22T06:46:38;97063.19;;;20.09;47.07
4814;BME280;15375;48.540;9.268;2023-03-22T06:49:04;97056.09;;;19.83;45.44
4814;BME280;15375;48.540;9.268;2023-03-22T06:51:30;97074.44;;;20.46;43.86
4814;BME280;15375;48.540;9.268;2023-03-22T06:53:56;97074.50;;;21.99;41.28
4814;BME280;15375;48.540;9.268;2023-03-22T06:56:21;97082.34;;;22.11;41.97
4814;BME280;15375;48.540;9.268;2023-03-22T06:58:47;97069.00;;;24.34;38.26
4814;BME280;15375;48.540;9.268;2023-03-22T07:01:13;97060.78;;;24.06;37.72
4814;BME280;15375;48.540;9.268;2023-03-22T07:03:38;97089.22;;;23.88;38.14
4814;BME280;15375;48.540;9.268;2023-03-22T07:06:06;97086.69;;;22.23;39.42
4814;BME280;15375;48.540;9.268;2023-03-22T07:08:32;97104.56;;;21.21;41.47
4814;BME280;15375;48.540;9.268;2023-03-22T07:10:58;97070.81;;;19.74;45.23
4814;BME280;15375;48.540;9.268;2023-03-22T07:13:23;97088.88;;;19.49;44.98
4814;BME280;15375;48.540;9.268;2023-03-22T07:15:49;97065.91;;;19.29;45.51
4814;BME280;15375;48.540;9.268;2023-03-22T07:18:14;97084.03;;;17.98;47.90
4814;BME280;15375;48.540;9.268;2023-03-22T07:20:39;97111.22;;;16.14;51.95
4814;BME280;15375;48.540;9.268;2023-03-22T07:23:07;97105.13;;;14.54;55.62
4814;BME280;15375;48.540;9.268;2023-03-22T07:25:34;97078.41;;;14.46;57.44
4814;BME280;15375;48.540;9.268;2023-03-22T07:28:00;97105.84;;;13.56;61.67
4814;BME280;15375;48.540;9.268;2023-03-22T07:30:25;97106.66;;;12.68;67.01
4814;BME280;15375;48.540;9.268;2023-03-22T07:32:51;97083.22;;;12.79;67.27
4814;BME280;15375;48.540;9.268;2023-03-22T07:35:16;97068.56;;;12.86;68.84
4814;BME280;15375;48.540;9.268;2023-03-22T07:37:45;97064.44;;;13.54;66.49
4814;BME280;15375;48.540;9.268;2023-03-22T07:40:12;97093.75;;;14.00;64.40
4814;BME280;15375;48.540;9.268;2023-03-22T07:42:38;97096.94;;;14.20;63.42
4814;BME280;15375;48.540;9.268;2023-03-22T07:45:03;97102.28;;;14.36;62.86
4814;BME280;15375;48.540;9.268;2023-03-22T07:47:29;97087.00;;;14.57;61.71
4814;BME280;15375;48.540;9.268;2023-03-22T07:49:55;97077.59;;;14.36;61.77
4814;BME280;15375;48.540;9.268;2023-03-22T07:52:20;97091.84;;;14.84;61.30
4814;BME280;15375;48.540;9.268;2023-03-22T07:54:45;97068.63;;;14.23;62.72
4814;BME280;15375;48.540;9.268;2023-03-22T07:57:11;97095.94;;;14.70;61.75
4814;BME280;15375;48.540;9.268;2023-03-22T07:59:36;97091.53;;;15.12;60.10
4814;BME280;15375;48.540;9.268;2023-03-22T08:02:02;97084.94;;;15.10;61.27
4814;BME280;15375;48.540;9.268;2023-03-22T08:04:27;97081.50;;;15.37;60.48
4814;BME280;15375;48.540;9.268;2023-03-22T08:06:54;97089.16;;;15.42;57.83
4814;BME280;15375;48.540;9.268;2023-03-22T08:09:23;97085.41;;;15.93;56.46
4814;BME280;15375;48.540;9.268;2023-03-22T08:11:49;97080.81;;;16.36;54.85
4814;BME280;15375;48.540;9.268;2023-03-22T08:14:15;97071.31;;;16.46;53.90
4814;BME280;15375;48.540;9.268;2023-03-22T08:16:40;97073.00;;;16.34;52.33
4814;BME280;15375;48.540;9.268;2023-03-22T08:19:08;97070.94;;;17.13;52.33
4814;BME280;15375;48.540;9.268;2023-03-22T08:21:33;97074.94;;;17.36;52.02
4814;BME280;15375;48.540;9.268;2023-03-22T08:23:58;97071.50;;;17.73;51.22
4814;BME280;15375;48.540;9.268;2023-03-22T08:26:24;97074.31;;;17.41;51.55
4814;BME280;15375;48.540;9.268;2023-03-22T08:28:50;97084.66;;;18.17;50.62
4814;BME280;15375;48.540;9.268;2023-03-22T08:31:15;97071.41;;;19.08;47.69
4814;BME280;15375;48.540;9.268;2023-03-22T08:33:41;97091.84;;;18.82;49.31
4814;BME280;15375;48.540;9.268;2023-03-22T08:36:10;97079.09;;;19.19;47.60
4814;BME280;15375;48.540;9.268;2023-03-22T08:38:36;97072.59;;;19.37;47.36
4814;BME280;15375;48.540;9.268;2023-03-22T08:41:01;97077.19;;;19.25;47.71
4814;BME280;15375;48.540;9.268;2023-03-22T08:43:28;97088.34;;;19.31;47.79
4814;BME280;15375;48.540;9.268;2023-03-22T08:45:53;97083.16;;;18.89;47.55
4814;BME280;15375;48.540;9.268;2023-03-22T08:48:19;97086.72;;;18.75;48.97
4814;BME280;15375;48.540;9.268;2023-03-22T08:50:44;97075.84;;;18.57;48.18
4814;BME280;15375;48.540;9.268;2023-03-22T08:53:09;97083.75;;;17.96;47.49
4814;BME280;15375;48.540;9.268;2023-03-22T08:55:35;97074.66;;;18.19;49.90
4814;BME280;15375;48.540;9.268;2023-03-22T08:58:01;97075.47;;;18.93;49.32
4814;BME280;15375;48.540;9.268;2023-03-22T09:00:28;97068.53;;;19.52;48.28
4814;BME280;15375;48.540;9.268;2023-03-22T09:02:54;97056.38;;;19.44;47.32
4814;BME280;15375;48.540;9.268;2023-03-22T09:05:20;97068.22;;;18.66;47.80
4814;BME280;15375;48.540;9.268;2023-03-22T09:07:45;97055.00;;;18.70;48.71
4814;BME280;15375;48.540;9.268;2023-03-22T09:10:10;97058.72;;;18.67;47.65
4814;BME280;15375;48.540;9.268;2023-03-22T09:12:36;97047.41;;;19.00;48.35
4814;BME280;15375;48.540;9.268;2023-03-22T09:15:02;97061.22;;;19.49;48.40
4814;BME280;15375;48.540;9.268;2023-03-22T09:17:28;97037.00;;;19.44;48.97
4814;BME280;15375;48.540;9.268;2023-03-22T09:19:54;97041.72;;;19.79;47.98
4814;BME280;15375;48.540;9.268;2023-03-22T09:22:19;97045.84;;;20.09;45.90
4814;BME280;15375;48.540;9.268;2023-03-22T09:24:45;97051.25;;;19.57;46.68
4814;BME280;15375;48.540;9.268;2023-03-22T09:27:10;97038.13;;;18.39;48.47
4814;BME280;15375;48.540;9.268;2023-03-22T09:29:35;97039.31;;;19.31;49.28
4814;BME280;15375;48.540;9.268;2023-03-22T09:32:01;97033.06;;;20.17;47.62
4814;BME280;15375;48.540;9.268;2023-03-22T09:34:26;97029.75;;;20.13;46.91
4814;BME280;15375;48.540;9.268;2023-03-22T09:36:52;97027.31;;;20.20;47.01
4814;BME280;15375;48.540;9.268;2023-03-22T09:39:17;97022.97;;;20.34;46.87
4814;BME280;15375;48.540;9.268;2023-03-22T09:41:45;97022.59;;;20.01;47.65
4814;BME280;15375;48.540;9.268;2023-03-22T09:44:21;97008.22;;;19.01;48.77
4814;BME280;15375;48.540;9.268;2023-03-22T09:46:51;97028.03;;;18.80;49.45
4814;BME280;15375;48.540;9.268;2023-03-22T09:49:23;97032.41;;;19.56;48.44
4814;BME280;15375;48.540;9.268;2023-03-22T09:51:51;97030.69;;;19.84;49.02
4814;BME280;15375;48.540;9.268;2023-03-22T09:54:31;97023.25;;;19.50;48.92
4814;BME280;15375;48.540;9.268;2023-03-22T09:57:30;97015.63;;;19.65;48.80
4814;BME280;15375;48.540;9.268;2023-03-22T10:03:01;97011.41;;;19.49;49.11
4814;BME280;15375;48.540;9.268;2023-03-22T10:05:43;96992.75;;;20.36;46.53
4814;BME280;15375;48.540;9.268;2023-03-22T10:10:50;96989.97;;;20.36;48.10
4814;BME280;15375;48.540;9.268;2023-03-22T10:16:02;96995.16;;;20.23;46.51
4814;BME280;15375;48.540;9.268;2023-03-22T10:18:59;96987.03;;;18.93;46.42
4814;BME280;15375;48.540;9.268;2023-03-22T10:21:26;96978.53;;;19.77;45.85
4814;BME280;15375;48.540;9.268;2023-03-22T10:23:56;96993.25;;;20.14;45.68
4814;BME280;15375;48.540;9.268;2023-03-22T10:26:30;96971.03;;;20.60;44.81
4814;BME280;15375;48.540;9.268;2023-03-22T10:29:01;96954.28;;;20.80;44.50
4814;BME280;15375;48.540;9.268;2023-03-22T10:31:31;96961.81;;;21.11;42.64
4814;BME280;15375;48.540;9.268;2023-03-22T10:34:09;96955.94;;;20.67;43.87
4814;BME280;15375;48.540;9.268;2023-03-22T10:36:37;96946.66;;;20.33;44.39
4814;BME280;15375;48.540;9.268;2023-03-22T10:39:33;96950.84;;;20.23;43.82
4814;BME280;15375;48.540;9.268;2023-03-22T10:41:58;96925.63;;;20.21;43.84
4814;BME280;15375;48.540;9.268;2023-03-22T10:44:26;96949.78;;;19.95;44.69
4814;BME280;15375;48.540;9.268;2023-03-22T10:46:54;96944.31;;;19.74;43.47
4814;BME280;15375;48.540;9.268;2023-03-22T10:49:25;96958.31;;;19.65;43.23
4814;BME280;15375;48.540;9.268;2023-03-22T10:52:01;96951.75;;;19.89;43.61
4814;BME280;15375;48.540;9.268;2023-03-22T10:54:27;96945.97;;;20.44;43.05
4814;BME280;15375;48.540;9.268;2023-03-22T10:56:53;96946.25;;;20.46;42.06
4814;BME280;15375;48.540;9.268;2023-03-22T10:59:50;96947.22;;;21.16;42.67
4814;BME280;15375;48.540;9.268;2023-03-22T11:02:27;96934.53;;;21.63;41.88
4814;BME280;15375;48.540;9.268;2023-03-22T11:05:03;96931.63;;;21.30;41.58
4814;BME280;15375;48.540;9.268;2023-03-22T11:07:42;96933.41;;;20.85;41.71
4814;BME280;15375;48.540;9.268;2023-03-22T11:12:37;96918.66;;;21.69;40.02
4814;BME280;15375;48.540;9.268;2023-03-22T11:15:04;96933.81;;;21.79;40.36
4814;BME280;15375;48.540;9.268;2023-03-22T11:17:30;96927.94;;;21.55;39.86
4814;BME280;15375;48.540;9.268;2023-03-22T11:20:02;96917.66;;;21.08;40.90
4814;BME280;15375;48.540;9.268;2023-03-22T11:22:42;96920.13;;;21.59;39.78
4814;BME280;15375;48.540;9.268;2023-03-22T11:25:24;96921.91;;;21.56;38.32
4814;BME280;15375;48.540;9.268;2023-03-22T11:30:32;96924.06;;;21.30;40.22
4814;BME280;15375;48.540;9.268;2023-03-22T11:33:15;96927.13;;;20.90;40.26
4814;BME280;15375;48.540;9.268;2023-03-22T11:35:44;96922.44;;;20.59;39.23
4814;BME280;15375;48.540;9.268;2023-03-22T11:38:28;96918.72;;;20.73;40.65
4814;BME280;15375;48.540;9.268;2023-03-22T11:41:02;96910.75;;;20.86;41.67
4814;BME280;15375;48.540;9.268;2023-03-22T11:43:37;96915.13;;;21.04;41.39
4814;BME280;15375;48.540;9.268;2023-03-22T11:46:06;96899.06;;;20.71;42.04
4814;BME280;15375;48.540;9.268;2023-03-22T11:48:33;96914.78;;;21.39;41.23
4814;BME280;15375;48.540;9.268;2023-03-22T11:51:06;96893.09;;;21.43;39.21
4814;BME280;15375;48.540;9.268;2023-03-22T11:53:34;96903.50;;;21.65;39.67
4814;BME280;15375;48.540;9.268;2023-03-22T11:56:02;96903.09;;;21.18;41.16
4814;BME280;15375;48.540;9.268;2023-03-22T12:01:17;96873.91;;;21.34;40.18
4814;BME280;15375;48.540;9.268;2023-03-22T12:03:53;96875.69;;;21.37;39.62
4814;BME280;15375;48.540;9.268;2023-03-22T12:06:26;96862.31;;;21.41;40.24
4814;BME280;15375;48.540;9.268;2023-03-22T12:08:57;96874.00;;;21.67;39.71
4814;BME280;15375;48.540;9.268;2023-03-22T12:11:28;96838.34;;;21.27;39.92
4814;BME280;15375;48.540;9.268;2023-03-22T12:14:00;96831.81;;;20.82;40.84
4814;BME280;15375;48.540;9.268;2023-03-22T12:16:31;96843.78;;;20.51;43.15
4814;BME280;15375;48.540;9.268;2023-03-22T12:19:09;96874.44;;;20.90;42.64
4814;BME280;15375;48.540;9.268;2023-03-22T12:21:38;96876.59;;;21.12;41.90
4814;BME280;15375;48.540;9.268;2023-03-22T12:24:16;96857.00;;;21.37;39.88
4814;BME280;15375;48.540;9.268;2023-03-22T12:26:43;96859.59;;;21.52;40.28
4814;BME280;15375;48.540;9.268;2023-03-22T12:29:16;96858.84;;;21.57;40.02
4814;BME280;15375;48.540;9.268;2023-03-22T12:31:59;96863.19;;;21.97;39.71
4814;BME280;15375;48.540;9.268;2023-03-22T12:34:35;96858.34;;;21.75;39.00
4814;BME280;15375;48.540;9.268;2023-03-22T12:37:05;96850.75;;;21.70;38.83
4814;BME280;15375;48.540;9.268;2023-03-22T12:39:36;96856.00;;;21.35;39.71
4814;BME280;15375;48.540;9.268;2023-03-22T12:42:12;96852.03;;;21.63;39.89
4814;BME280;15375;48.540;9.268;2023-03-22T12:44:42;96866.69;;;20.99;39.76
4814;BME280;15375;48.540;9.268;2023-03-22T12:47:16;96863.75;;;21.09;39.44
4814;BME280;15375;48.540;9.268;2023-03-22T12:49:50;96856.19;;;21.15;39.05
4814;BME280;15375;48.540;9.268;2023-03-22T12:52:34;96840.84;;;21.30;38.33
4814;BME280;15375;48.540;9.268;2023-03-22T12:55:01;96848.66;;;21.21;40.22
4814;BME280;15375;48.540;9.268;2023-03-22T12:57:28;96830.66;;;21.05;38.77
4814;BME280;15375;48.540;9.268;2023-03-22T12:59:57;96842.25;;;21.04;37.74
4814;BME280;15375;48.540;9.268;2023-03-22T13:02:32;96838.81;;;21.14;39.31
4814;BME280;15375;48.540;9.268;2023-03-22T13:05:01;96837.03;;;21.17;39.61
4814;BME280;15375;48.540;9.268;2023-03-22T13:15:38;96829.59;;;22.00;39.46
4814;BME280;15375;48.540;9.268;2023-03-22T13:18:27;96810.34;;;21.36;39.33
4814;BME280;15375;48.540;9.268;2023-03-22T13:26:42;96807.84;;;21.49;37.64
4814;BME280;15375;48.540;9.268;2023-03-22T13:34:36;96808.34;;;20.66;37.71
4814;BME280;15375;48.540;9.268;2023-03-22T13:37:07;96773.81;;;20.19;37.55
4814;BME280;15375;48.540;9.268;2023-03-22T13:39:35;96793.25;;;20.73;38.88
4814;BME280;15375;48.540;9.268;2023-03-22T13:42:15;96789.13;;;20.52;38.06
4814;BME280;15375;48.540;9.268;2023-03-22T13:44:42;96789.50;;;20.81;39.04
4814;BME280;15375;48.540;9.268;2023-03-22T13:47:45;96788.03;;;20.97;39.34
4814;BME280;15375;48.540;9.268;2023-03-22T13:50:21;96781.06;;;21.13;37.69
4814;BME280;15375;48.540;9.268;2023-03-22T13:52:53;96774.44;;;21.05;36.66
4814;BME280;15375;48.540;9.268;2023-03-22T13:57:59;96771.09;;;20.78;37.61
4814;BME280;15375;48.540;9.268;2023-03-22T14:02:56;96782.56;;;21.14;37.62
4814;BME280;15375;48.540;9.268;2023-03-22T14:05:24;96769.91;;;21.02;38.45
4814;BME280;15375;48.540;9.268;2023-03-22T14:07:55;96762.78;;;20.78;38.03
4814;BME280;15375;48.540;9.268;2023-03-22T14:10:26;96778.50;;;21.04;37.37
4814;BME280;15375;48.540;9.268;2023-03-22T14:12:55;96763.47;;;20.57;38.05
4814;BME280;15375;48.540;9.268;2023-03-22T14:15:24;96767.34;;;20.81;39.19
4814;BME280;15375;48.540;9.268;2023-03-22T14:20:30;96767.34;;;20.81;38.35
4814;BME280;15375;48.540;9.268;2023-03-22T14:22:58;96761.25;;;20.66;37.21
4814;BME280;15375;48.540;9.268;2023-03-22T14:25:28;96756.72;;;20.74;37.80
4814;BME280;15375;48.540;9.268;2023-03-22T14:27:55;96740.06;;;20.63;38.88
4814;BME280;15375;48.540;9.268;2023-03-22T14:30:33;96753.41;;;20.65;37.37
4814;BME280;15375;48.540;9.268;2023-03-22T14:33:12;96751.91;;;20.64;38.59
4814;BME280;15375;48.540;9.268;2023-03-22T14:35:46;96753.88;;;20.58;38.56
4814;BME280;15375;48.540;9.268;2023-03-22T14:38:18;96725.09;;;20.39;37.74
4814;BME280;15375;48.540;9.268;2023-03-22T14:40:44;96749.28;;;20.38;37.88
4814;BME280;15375;48.540;9.268;2023-03-22T14:45:46;96766.84;;;20.24;38.84
4814;BME280;15375;48.540;9.268;2023-03-22T14:48:20;96753.59;;;20.50;37.71
4814;BME280;15375;48.540;9.268;2023-03-22T14:50:51;96747.13;;;20.16;39.25
4814;BME280;15375;48.540;9.268;2023-03-22T14:53:20;96750.00;;;20.33;39.54